Time;durP1;ratioP1;P1;durP2;ratioP2;P2;SDS_P1;SDS_P2;PMS_P1;PMS_P2;Temp;Humidity;BMP_temperature;BMP_pressure;BME280_temperature;BME280_humidity;BME280_pressure;Samples;Min_cycle;Max_cycle;Signal;HPM_P1;HPM_P2
2024/01/25 00:02:16;;;;;;;17.10;4.40;;;;;;;9.19;66.35;99775.88;5011805;28;102842;-74
2024/01/25 00:04:44;;;;;;;15.90;4.95;;;;;;;9.17;66.60;99778.66;4985121;28;104025;-74
2024/01/25 00:07:12;;;;;;;23.67;5.85;;;;;;;9.08;67.03;99767.06;5001899;28;103250;-73
2024/01/25 00:09:40;;;;;;;26.17;6.35;;;;;;;9.13;66.90;99772.81;5008894;28;103068;-74
2024/01/25 00:12:08;;;;;;;17.40;4.53;;;;;;;9.16;66.88;99754.97;5009584;28;102767;-74
2024/01/25 00:14:37;;;;;;;17.08;4.82;;;;;;;9.14;67.21;99757.78;4975289;28;104075;-74
2024/01/25 00:17:05;;;;;;;18.13;6.25;;;;;;;9.16;67.27;99753.19;4991645;28;105178;-73
2024/01/25 00:19:35;;;;;;;13.20;4.50;;;;;;;9.22;67.11;99754.47;4986687;28;104081;-74
2024/01/25 00:22:03;;;;;;;15.20;4.57;;;;;;;9.23;66.96;99748.22;5006654;28;103883;-73
2024/01/25 00:24:31;;;;;;;18.27;4.78;;;;;;;9.11;67.07;99753.59;5002296;28;103546;-74
2024/01/25 00:26:59;;;;;;;14.60;4.95;;;;;;;9.19;66.96;99760.03;5007516;28;104000;-74
2024/01/25 00:29:27;;;;;;;11.88;4.10;;;;;;;9.22;67.22;99754.47;4999901;28;102668;-74
2024/01/25 00:31:57;;;;;;;16.63;4.47;;;;;;;9.24;67.24;99757.81;5004808;28;104046;-74
2024/01/25 00:34:26;;;;;;;14.45;4.65;;;;;;;9.22;67.19;99754.47;5004821;28;104120;-74
2024/01/25 00:36:54;;;;;;;12.82;4.57;;;;;;;9.26;67.22;99755.88;5001192;28;103913;-74
2024/01/25 00:39:23;;;;;;;21.02;5.22;;;;;;;9.17;67.67;99749.59;4982061;28;102737;-74
2024/01/25 00:41:53;;;;;;;14.93;4.90;;;;;;;9.27;67.31;99757.53;4991975;28;103804;-74
2024/01/25 00:44:21;;;;;;;22.15;5.93;;;;;;;9.26;67.57;99758.50;4997841;28;103996;-73
2024/01/25 00:46:52;;;;;;;13.23;4.40;;;;;;;9.31;67.46;99761.59;4995820;28;103402;-74
2024/01/25 00:49:22;;;;;;;18.20;5.40;;;;;;;9.35;67.31;99759.53;4999285;28;102664;-73
2024/01/25 00:51:56;;;;;;;15.98;4.15;;;;;;;9.26;67.67;99755.88;4982614;28;102817;-74
2024/01/25 00:54:25;;;;;;;14.07;4.55;;;;;;;9.32;67.73;99757.16;5001325;28;103353;-73
2024/01/25 00:56:53;;;;;;;15.65;4.47;;;;;;;9.35;67.69;99749.78;5004456;28;103316;-74
2024/01/25 00:59:21;;;;;;;14.70;5.10;;;;;;;9.31;67.74;99750.19;4985684;28;104466;-74
2024/01/25 01:01:50;;;;;;;15.43;4.32;;;;;;;9.32;67.81;99755.34;5002478;28;103213;-74
2024/01/25 01:04:22;;;;;;;16.27;3.97;;;;;;;9.36;68.03;99751.44;5003496;28;103238;-74
2024/01/25 01:06:50;;;;;;;13.27;4.95;;;;;;;9.29;68.11;99760.91;4974814;28;105062;-74
2024/01/25 01:09:18;;;;;;;9.18;3.60;;;;;;;9.38;67.92;99754.81;4987830;28;102688;-74
2024/01/25 01:11:46;;;;;;;20.02;5.68;;;;;;;9.33;68.00;99759.66;5002414;28;104079;-74
2024/01/25 01:14:14;;;;;;;13.32;4.90;;;;;;;9.35;68.40;99743.66;4985849;28;104273;-74
2024/01/25 01:16:42;;;;;;;14.85;5.38;;;;;;;9.43;68.23;99757.88;5001625;28;103355;-74
2024/01/25 01:19:10;;;;;;;22.83;5.57;;;;;;;9.31;68.24;99743.09;5001362;28;102642;-74
2024/01/25 01:21:43;;;;;;;23.73;5.25;;;;;;;9.36;68.45;99746.16;4998590;28;104287;-74
2024/01/25 01:24:11;;;;;;;23.30;5.93;;;;;;;9.41;68.14;99743.13;4977860;28;104733;-74
2024/01/25 01:26:41;;;;;;;14.95;4.55;;;;;;;9.38;68.42;99749.53;4999785;28;103239;-75
2024/01/25 01:29:09;;;;;;;13.40;4.47;;;;;;;9.31;68.54;99748.38;4982400;28;102805;-74
2024/01/25 01:31:37;;;;;;;16.85;5.85;;;;;;;9.28;68.45;99753.94;5001664;28;102680;-74
2024/01/25 01:34:07;;;;;;;15.88;5.68;;;;;;;9.34;68.05;99758.69;4971089;28;104590;-75
2024/01/25 01:36:35;;;;;;;17.00;4.75;;;;;;;9.37;68.04;99745.19;4977657;28;104156;-75
2024/01/25 01:39:05;;;;;;;20.38;5.47;;;;;;;9.38;68.23;99743.38;5001991;28;102623;-74
2024/01/25 01:41:33;;;;;;;22.48;5.13;;;;;;;9.29;68.02;99745.03;5004667;28;104097;-74
2024/01/25 01:44:01;;;;;;;11.73;4.03;;;;;;;9.32;68.13;99747.41;4997395;28;103373;-74
2024/01/25 01:46:34;;;;;;;18.30;4.78;;;;;;;9.34;67.70;99750.78;4999060;28;103293;-74
2024/01/25 01:49:04;;;;;;;17.73;4.47;;;;;;;9.34;67.95;99742.84;4980152;28;102737;-74
2024/01/25 01:51:33;;;;;;;12.15;4.53;;;;;;;9.29;68.00;99742.41;4994728;28;103090;-74
2024/01/25 01:54:03;;;;;;;24.60;5.30;;;;;;;9.33;67.58;99738.50;5000878;28;103446;-74
2024/01/25 01:56:33;;;;;;;19.33;4.85;;;;;;;9.39;67.78;99745.91;5004128;28;103329;-74
2024/01/25 01:59:02;;;;;;;14.75;5.53;;;;;;;9.38;67.90;99749.53;4993195;28;102688;-74
2024/01/25 02:01:30;;;;;;;13.23;3.92;;;;;;;9.39;67.80;99748.56;4981568;28;104303;-74
2024/01/25 02:04:00;;;;;;;17.13;5.35;;;;;;;9.30;67.72;99741.41;4982000;28;104435;-74
2024/01/25 02:06:29;;;;;;;9.88;4.35;;;;;;;9.42;67.96;99732.41;5000115;28;102651;-74
2024/01/25 02:08:58;;;;;;;13.60;4.45;;;;;;;9.33;67.73;99735.88;5000429;28;103048;-74
2024/01/25 02:11:26;;;;;;;11.00;3.72;;;;;;;9.36;68.04;99735.59;4999300;28;102831;-74
2024/01/25 02:13:56;;;;;;;19.95;4.05;;;;;;;9.31;67.92;99736.97;5000811;28;104011;-73
2024/01/25 02:16:24;;;;;;;8.68;3.88;;;;;;;9.35;67.79;99733.91;4980011;28;104443;-74
2024/01/25 02:18:54;;;;;;;17.48;4.22;;;;;;;9.34;67.54;99742.84;5002095;28;102720;-74
2024/01/25 02:21:22;;;;;;;19.27;5.03;;;;;;;9.36;67.57;99734.75;4981484;28;104217;-74
2024/01/25 02:23:52;;;;;;;15.15;5.57;;;;;;;9.36;67.28;99734.75;4978595;28;104404;-75
2024/01/25 02:26:20;;;;;;;17.27;6.07;;;;;;;9.32;67.51;99728.91;4973761;28;106915;-74
2024/01/25 02:28:48;;;;;;;14.25;4.10;;;;;;;9.33;67.11;99735.88;4998586;28;102617;-75
2024/01/25 02:31:16;;;;;;;12.77;4.20;;;;;;;9.31;67.05;99735.16;4978879;28;103094;-75
2024/01/25 02:33:44;;;;;;;16.10;4.45;;;;;;;9.34;67.39;99737.56;4982136;28;104186;-75
2024/01/25 02:36:12;;;;;;;12.30;3.67;;;;;;;9.24;67.25;99741.97;4995757;28;103246;-75
2024/01/25 02:38:40;;;;;;;22.80;5.35;;;;;;;9.22;67.07;99733.31;4998515;28;102711;-73
2024/01/25 02:41:09;;;;;;;13.25;4.68;;;;;;;9.28;67.30;99733.63;4979728;28;102804;-72
2024/01/25 02:43:37;;;;;;;12.52;3.63;;;;;;;9.31;67.11;99743.09;4996832;28;104250;-73
2024/01/25 02:46:05;;;;;;;12.68;4.10;;;;;;;9.17;67.15;99744.31;5004901;28;103938;-74
2024/01/25 02:48:33;;;;;;;14.05;4.97;;;;;;;9.20;67.24;99745.84;4979140;28;102716;-74
2024/01/25 02:51:01;;;;;;;16.98;4.32;;;;;;;9.29;67.09;99760.91;4975705;28;104056;-74
2024/01/25 02:53:29;;;;;;;16.25;4.72;;;;;;;9.09;67.44;99755.53;4989931;28;104114;-73
2024/01/25 02:55:57;;;;;;;14.95;4.50;;;;;;;9.05;67.66;99759.41;5004191;28;103280;-74
2024/01/25 02:58:26;;;;;;;18.52;5.72;;;;;;;9.16;67.32;99750.56;4991749;28;102987;-74
2024/01/25 03:00:54;;;;;;;13.50;4.88;;;;;;;9.10;67.76;99751.94;4999950;28;102734;-74
2024/01/25 03:03:23;;;;;;;18.65;5.10;;;;;;;9.19;67.49;99750.28;4995015;28;103289;-74
2024/01/25 03:05:52;;;;;;;22.27;4.75;;;;;;;9.07;68.34;99752.19;4999682;28;103295;-74
2024/01/25 03:08:20;;;;;;;19.30;5.00;;;;;;;9.05;68.23;99756.78;4991236;28;102680;-74
2024/01/25 03:10:53;;;;;;;21.55;4.07;;;;;;;9.16;68.19;99760.28;5000489;28;103308;-74
2024/01/25 03:13:21;;;;;;;15.23;4.90;;;;;;;9.20;67.80;99759.88;4975455;28;104365;-74
2024/01/25 03:15:50;;;;;;;17.33;4.85;;;;;;;9.06;68.46;99769.00;4985726;28;103553;-74
2024/01/25 03:18:18;;;;;;;20.92;4.75;;;;;;;9.12;68.16;99771.13;4998442;28;102819;-73
2024/01/25 03:20:47;;;;;;;23.13;5.35;;;;;;;8.98;68.91;99768.81;4980894;28;104092;-74
2024/01/25 03:23:15;;;;;;;11.85;3.63;;;;;;;9.05;68.73;99769.13;4980224;28;104066;-74
2024/01/25 03:25:43;;;;;;;11.25;4.15;;;;;;;9.04;68.44;99765.66;4993647;28;103296;-74
2024/01/25 03:28:13;;;;;;;15.95;4.07;;;;;;;9.09;68.08;99776.69;5002484;28;102545;-74
2024/01/25 03:30:43;;;;;;;16.85;5.13;;;;;;;9.05;68.52;99775.28;5000224;28;103720;-74
2024/01/25 03:33:13;;;;;;;19.45;5.57;;;;;;;8.98;68.65;99776.75;4982158;28;104317;-74
2024/01/25 03:35:40;;;;;;;13.50;4.35;;;;;;;8.95;68.64;99782.31;4978433;28;104396;-74
2024/01/25 03:38:08;;;;;;;13.02;4.43;;;;;;;8.95;68.74;99779.69;4976449;28;102799;-74
2024/01/25 03:40:36;;;;;;;19.98;5.47;;;;;;;8.97;69.04;99788.28;4982661;28;102642;-74
2024/01/25 03:43:04;;;;;;;11.15;3.70;;;;;;;9.02;68.77;99780.81;4967526;28;104593;-74
2024/01/25 03:45:46;;;;;;;13.20;4.28;;;;;;;9.01;68.88;99797.63;5000627;28;103291;-74
2024/01/25 03:48:15;;;;;;;15.32;4.53;;;;;;;9.02;68.21;99801.94;5001493;28;103377;-74
2024/01/25 03:50:43;;;;;;;14.52;4.78;;;;;;;9.00;68.27;99803.91;4997812;28;103843;-74
2024/01/25 03:53:11;;;;;;;11.02;4.22;;;;;;;8.96;68.88;99805.09;4995488;28;104293;-74
2024/01/25 03:55:39;;;;;;;11.45;3.63;;;;;;;8.92;68.98;99814.25;4999003;28;103225;-74
2024/01/25 03:58:07;;;;;;;15.85;4.63;;;;;;;8.86;68.90;99818.28;4982035;28;102861;-74
2024/01/25 04:00:35;;;;;;;11.65;3.55;;;;;;;8.98;68.63;99824.31;4995446;28;102675;-75
2024/01/25 04:03:04;;;;;;;13.45;4.50;;;;;;;8.98;68.90;99821.69;4997161;28;103296;-74
2024/01/25 04:05:33;;;;;;;14.75;3.63;;;;;;;9.02;68.85;99811.69;4994311;28;102976;-74
2024/01/25 04:08:01;;;;;;;12.05;3.95;;;;;;;8.97;69.29;99817.34;4952864;28;103749;-74
2024/01/25 04:10:29;;;;;;;9.88;3.88;;;;;;;8.94;68.74;99817.63;4983648;28;104015;-74
2024/01/25 04:12:57;;;;;;;19.02;6.28;;;;;;;8.90;68.74;99819.69;4996438;28;104432;-74
2024/01/25 04:15:25;;;;;;;18.13;5.53;;;;;;;8.93;68.80;99823.88;4994296;28;103282;-74
2024/01/25 04:17:53;;;;;;;14.05;4.18;;;;;;;8.77;68.72;99819.88;4971189;28;102824;-74
2024/01/25 04:20:21;;;;;;;14.77;4.18;;;;;;;8.77;68.89;99811.13;4973679;28;103225;-74
2024/01/25 04:22:51;;;;;;;16.52;5.20;;;;;;;8.85;68.56;99815.75;4996297;28;103379;-74
2024/01/25 04:25:18;;;;;;;14.10;5.03;;;;;;;8.78;68.89;99813.63;4980810;28;104048;-74
2024/01/25 04:27:46;;;;;;;18.63;5.40;;;;;;;8.82;68.64;99816.00;4979349;28;102945;-74
2024/01/25 04:30:19;;;;;;;12.45;4.03;;;;;;;8.83;68.51;99823.81;4980383;28;104112;-74
2024/01/25 04:32:47;;;;;;;14.07;4.22;;;;;;;8.74;68.75;99820.16;4965473;28;103509;-74
2024/01/25 04:35:17;;;;;;;20.17;4.93;;;;;;;8.82;68.18;99818.66;4990072;28;103970;-74
2024/01/25 04:37:45;;;;;;;18.83;4.50;;;;;;;8.64;68.52;99813.94;4996853;28;102994;-75
2024/01/25 04:40:15;;;;;;;21.33;5.70;;;;;;;8.69;68.09;99817.03;4979861;28;102837;-74
2024/01/25 04:42:43;;;;;;;13.68;3.63;;;;;;;8.73;68.00;99813.19;4994504;27;104267;-74
2024/01/25 04:45:11;;;;;;;14.82;3.88;;;;;;;8.77;68.25;99822.50;4983940;28;104483;-74
2024/01/25 04:47:39;;;;;;;14.52;4.28;;;;;;;8.76;67.90;99828.78;4998569;28;102711;-75
2024/01/25 04:50:08;;;;;;;13.75;4.82;;;;;;;8.68;68.21;99815.38;4982357;28;104184;-74
2024/01/25 04:52:36;;;;;;;14.20;4.82;;;;;;;8.65;68.22;99820.91;4998902;28;104145;-74
2024/01/25 04:55:05;;;;;;;18.23;4.90;;;;;;;8.58;67.92;99819.75;5000259;28;103072;-74
2024/01/25 04:57:34;;;;;;;11.23;4.50;;;;;;;8.64;67.75;99816.59;5002257;28;102903;-74
2024/01/25 05:00:02;;;;;;;21.23;5.50;;;;;;;8.64;67.49;99827.16;4988746;28;104063;-73
2024/01/25 05:02:30;;;;;;;18.30;4.97;;;;;;;8.59;68.21;99831.97;4993800;28;104065;-74
2024/01/25 05:04:58;;;;;;;17.27;4.65;;;;;;;8.52;67.54;99836.13;4979717;28;103520;-73
2024/01/25 05:07:26;;;;;;;14.15;4.53;;;;;;;8.49;67.68;99836.34;4980503;28;103251;-74
2024/01/25 05:09:57;;;;;;;12.07;4.53;;;;;;;8.46;67.39;99838.28;4979999;28;102688;-74
2024/01/25 05:12:25;;;;;;;11.02;3.50;;;;;;;8.46;67.64;99832.16;4978945;28;103110;-73
2024/01/25 05:14:55;;;;;;;16.88;5.03;;;;;;;8.43;67.13;99833.22;4997718;28;103259;-74
2024/01/25 05:17:23;;;;;;;20.73;5.00;;;;;;;8.32;68.02;99835.06;4999723;28;103102;-73
2024/01/25 05:19:51;;;;;;;16.85;5.32;;;;;;;8.31;67.81;99834.22;4980495;28;104196;-73
2024/01/25 05:22:21;;;;;;;16.25;4.95;;;;;;;8.28;67.11;99839.78;4979265;28;104204;-73
2024/01/25 05:24:50;;;;;;;11.40;3.92;;;;;;;8.22;67.36;99842.91;4967559;28;104467;-72
2024/01/25 05:27:18;;;;;;;15.88;4.18;;;;;;;8.21;66.99;99854.41;4980073;28;102749;-73
2024/01/25 05:29:46;;;;;;;12.82;4.25;;;;;;;8.10;67.46;99852.66;4998369;27;102797;-73
2024/01/25 05:32:15;;;;;;;12.93;4.18;;;;;;;8.11;67.33;99855.16;4977214;28;104719;-72
2024/01/25 05:34:43;;;;;;;20.63;4.95;;;;;;;8.03;68.31;99859.38;4981521;28;104752;-72
2024/01/25 05:37:11;;;;;;;7.75;3.53;;;;;;;8.10;67.91;99853.47;4978687;28;102966;-72
2024/01/25 05:39:39;;;;;;;19.83;4.85;;;;;;;8.06;67.87;99862.63;5005056;28;102737;-74
2024/01/25 05:42:08;;;;;;;11.75;3.70;;;;;;;8.06;67.35;99865.25;5001396;28;103268;-73
2024/01/25 05:44:39;;;;;;;22.27;5.00;;;;;;;7.96;67.19;99862.53;4984125;28;104340;-73
2024/01/25 05:47:09;;;;;;;9.27;3.60;;;;;;;7.92;67.50;99860.25;4987799;28;103099;-72
2024/01/25 05:49:41;;;;;;;15.95;5.38;;;;;;;7.87;67.30;99857.97;4991162;28;102822;-72
2024/01/25 05:52:09;;;;;;;15.27;4.10;;;;;;;7.86;67.26;99856.31;5002756;28;104292;-73
2024/01/25 05:54:37;;;;;;;14.57;3.72;;;;;;;7.79;67.89;99866.50;5008525;28;103223;-72
2024/01/25 05:57:05;;;;;;;8.63;3.78;;;;;;;7.77;67.36;99867.59;5007454;28;102733;-76
2024/01/25 05:59:33;;;;;;;10.55;4.35;;;;;;;7.83;67.58;99871.53;5003865;28;102796;-76
2024/01/25 06:02:02;;;;;;;11.40;4.20;;;;;;;7.71;67.45;99875.97;5005234;28;104193;-72
2024/01/25 06:04:30;;;;;;;11.30;3.55;;;;;;;7.71;67.20;99882.06;4977749;28;104110;-73
2024/01/25 06:07:03;;;;;;;19.25;4.50;;;;;;;7.68;66.93;99878.84;4980149;28;102706;-73
2024/01/25 06:09:32;;;;;;;11.57;5.95;;;;;;;7.59;66.92;99880.41;4981028;28;103967;-73
2024/01/25 06:12:01;;;;;;;9.02;3.30;;;;;;;7.55;67.60;99890.34;5001625;28;103647;-76
2024/01/25 06:14:29;;;;;;;9.57;2.67;;;;;;;7.53;68.11;99886.16;4975969;28;104081;-75
2024/01/25 06:16:57;;;;;;;13.38;3.63;;;;;;;7.53;67.64;99878.25;5005450;28;103939;-76
2024/01/25 06:19:25;;;;;;;11.98;4.13;;;;;;;7.50;67.76;99881.13;4984701;28;104117;-72
2024/01/25 06:21:53;;;;;;;13.23;4.82;;;;;;;7.43;67.96;99876.31;4988190;28;104300;-73
2024/01/25 06:24:22;;;;;;;14.95;3.65;;;;;;;7.41;68.52;99874.75;4986282;28;104433;-73
2024/01/25 06:26:50;;;;;;;15.50;5.07;;;;;;;7.31;68.46;99887.81;4984808;28;103437;-73
2024/01/25 06:29:18;;;;;;;13.00;4.15;;;;;;;7.30;69.49;99883.50;5006412;28;103994;-74
2024/01/25 06:31:46;;;;;;;12.07;3.97;;;;;;;7.27;69.85;99873.19;4981219;28;104228;-73
2024/01/25 06:34:14;;;;;;;12.25;4.15;;;;;;;7.25;70.32;99869.84;4998861;28;103285;-75
2024/01/25 06:36:42;;;;;;;7.72;3.30;;;;;;;7.14;70.41;99874.13;4980439;28;102826;-73
2024/01/25 06:39:10;;;;;;;22.77;4.65;;;;;;;7.19;71.34;99878.22;4992089;28;104150;-74
2024/01/25 06:41:39;;;;;;;15.50;4.78;;;;;;;7.17;71.98;99874.88;4994349;28;103270;-74
2024/01/25 06:44:08;;;;;;;8.32;3.58;;;;;;;7.13;71.37;99880.34;4998239;28;103254;-74
2024/01/25 06:46:36;;;;;;;10.43;3.72;;;;;;;7.14;71.67;99881.22;4988401;28;102628;-78
2024/01/25 06:49:04;;;;;;;10.20;3.78;;;;;;;7.12;70.84;99883.94;4986603;28;103854;-73
2024/01/25 06:51:33;;;;;;;10.43;4.20;;;;;;;7.08;71.83;99898.31;4982053;28;103065;-76
2024/01/25 06:54:01;;;;;;;18.45;6.22;;;;;;;7.03;71.54;99903.06;4984635;28;103228;-75
2024/01/25 06:56:28;;;;;;;13.95;5.15;;;;;;;6.97;72.45;99901.75;4978360;28;102699;-75
2024/01/25 06:58:58;;;;;;;15.98;5.88;;;;;;;6.94;72.14;99912.53;4997763;28;103900;-75
2024/01/25 07:01:27;;;;;;;15.23;5.82;;;;;;;6.96;72.54;99915.03;5003000;28;104340;-75
2024/01/25 07:03:56;;;;;;;18.88;5.78;;;;;;;6.80;72.47;99915.34;4980289;28;103222;-75
2024/01/25 07:06:26;;;;;;;16.35;4.85;;;;;;;6.82;72.69;99917.88;4989365;27;102841;-78
2024/01/25 07:08:54;;;;;;;9.95;4.32;;;;;;;6.80;72.58;99920.63;4974280;28;102721;-78
2024/01/25 07:11:22;;;;;;;18.13;5.55;;;;;;;6.71;72.75;99924.75;4998303;28;103290;-78
2024/01/25 07:13:50;;;;;;;15.98;4.15;;;;;;;6.69;72.58;99926.66;4977997;28;104214;-78
2024/01/25 07:16:20;;;;;;;14.35;4.63;;;;;;;6.70;72.98;99933.63;4978544;28;102703;-78
2024/01/25 07:18:49;;;;;;;26.13;6.13;;;;;;;6.67;72.77;99931.22;4981968;28;103501;-79
2024/01/25 07:21:18;;;;;;;13.80;3.67;;;;;;;6.67;73.18;99930.34;4975363;28;104474;-80
2024/01/25 07:23:46;;;;;;;10.35;3.30;;;;;;;6.72;73.44;99930.88;4996418;28;102575;-80
2024/01/25 07:26:18;;;;;;;19.70;5.50;;;;;;;6.82;72.09;99925.78;4976771;28;102847;-78
2024/01/25 07:28:47;;;;;;;10.45;3.95;;;;;;;6.72;72.37;99922.97;4977493;28;104092;-80
2024/01/25 07:31:15;;;;;;;12.57;3.55;;;;;;;6.75;72.86;99926.22;4972669;28;103240;-80
2024/01/25 07:33:44;;;;;;;19.80;4.72;;;;;;;6.79;71.96;99922.41;4974657;28;103591;-78
2024/01/25 07:36:12;;;;;;;17.30;5.43;;;;;;;6.87;72.59;99929.72;4993101;28;102674;-79
2024/01/25 07:38:46;;;;;;;21.67;5.70;;;;;;;6.92;71.69;99934.66;4979822;28;102730;-76
2024/01/25 07:41:14;;;;;;;16.70;5.15;;;;;;;6.89;72.00;99941.00;4995308;28;103336;-78
2024/01/25 07:43:43;;;;;;;15.75;5.78;;;;;;;6.93;72.06;99946.88;4979571;28;104129;-80
2024/01/25 07:46:14;;;;;;;21.30;5.47;;;;;;;6.93;72.48;99952.13;4996745;28;103024;-80
2024/01/25 07:48:44;;;;;;;18.77;6.78;;;;;;;6.79;73.09;99956.63;5003051;28;103833;-80
2024/01/25 07:51:13;;;;;;;14.07;5.30;;;;;;;6.85;72.93;99957.13;4979040;28;104335;-80
2024/01/25 07:53:41;;;;;;;19.60;5.43;;;;;;;6.87;72.90;99952.59;4974951;28;104256;-80
2024/01/25 07:56:10;;;;;;;11.98;5.13;;;;;;;6.96;72.74;99946.66;4981756;28;103307;-77
2024/01/25 07:58:38;;;;;;;18.85;7.50;;;;;;;7.08;71.74;99940.47;4977438;28;104088;-78
2024/01/25 08:01:07;;;;;;;18.35;6.25;;;;;;;7.20;71.52;99928.16;4997063;28;103462;-77
2024/01/25 08:03:36;;;;;;;22.85;7.95;;;;;;;7.11;71.65;99921.81;4995723;28;103569;-79
2024/01/25 08:06:06;;;;;;;15.30;6.07;;;;;;;7.36;71.55;99921.72;4996299;28;102921;-78
2024/01/25 08:08:34;;;;;;;11.30;4.97;;;;;;;7.63;70.27;99918.75;4980502;28;103921;-78
2024/01/25 08:11:04;;;;;;;9.70;4.57;;;;;;;7.77;70.64;99926.44;4981025;28;104960;-77
2024/01/25 08:13:31;;;;;;;14.20;4.28;;;;;;;7.83;70.49;99929.56;4984174;28;104166;-77
2024/01/25 08:16:02;;;;;;;19.67;5.45;;;;;;;8.08;69.29;99929.31;4980862;28;102602;-78
2024/01/25 08:18:30;;;;;;;10.40;3.55;;;;;;;8.07;69.75;99927.63;4977846;28;103387;-78
2024/01/25 08:21:00;;;;;;;17.48;4.85;;;;;;;8.22;69.47;99927.34;4963054;28;104864;-78
2024/01/25 08:23:30;;;;;;;14.38;5.40;;;;;;;8.38;68.34;99927.78;4988246;28;102665;-77
2024/01/25 08:26:03;;;;;;;19.42;5.82;;;;;;;8.49;68.22;99928.75;4994725;28;102688;-78
2024/01/25 08:28:36;;;;;;;19.03;5.43;;;;;;;8.58;67.88;99930.66;5021183;28;103638;-79
2024/01/25 08:34:14;;;;;;;19.52;5.93;;;;;;;8.94;67.21;99920.69;5015415;28;103098;-77
2024/01/25 08:36:42;;;;;;;11.88;4.05;;;;;;;8.98;67.23;99923.91;4988562;28;102671;-79
2024/01/25 08:39:12;;;;;;;14.35;5.50;;;;;;;9.12;66.95;99923.59;5016320;28;103750;-78
2024/01/25 08:41:39;;;;;;;15.60;5.55;;;;;;;9.15;67.04;99936.53;5013995;28;103277;-77
2024/01/25 08:44:09;;;;;;;13.05;3.95;;;;;;;9.41;66.04;99950.22;5008177;28;103185;-79
2024/01/25 08:46:36;;;;;;;8.98;3.90;;;;;;;9.49;65.88;99961.94;4992172;28;102594;-78
2024/01/25 08:49:08;;;;;;;16.65;4.72;;;;;;;9.59;65.38;99958.38;5004854;28;104167;-77
2024/01/25 08:51:37;;;;;;;11.20;5.05;;;;;;;9.57;65.04;99959.50;5010920;28;103277;-74
2024/01/25 08:54:05;;;;;;;15.02;5.25;;;;;;;9.69;64.06;99954.94;5015841;28;103201;-74
2024/01/25 08:56:34;;;;;;;15.30;4.90;;;;;;;9.83;64.03;99964.38;5014988;28;103629;-75
2024/01/25 08:59:02;;;;;;;12.60;5.10;;;;;;;9.79;64.24;99966.44;4996295;28;104229;-75
2024/01/25 09:01:30;;;;;;;9.77;4.47;;;;;;;9.90;63.87;99969.00;4980451;28;103436;-75
2024/01/25 09:04:02;;;;;;;16.85;4.20;;;;;;;10.16;63.13;99965.88;4999560;28;103180;-75
2024/01/25 09:06:30;;;;;;;12.43;4.57;;;;;;;10.22;63.02;99969.81;5004885;28;102782;-75
2024/01/25 09:08:59;;;;;;;16.95;4.97;;;;;;;10.53;61.96;99962.66;5001068;28;104053;-75
2024/01/25 09:11:26;;;;;;;18.83;5.13;;;;;;;10.59;61.58;99962.09;4982833;28;103448;-75
2024/01/25 09:13:58;;;;;;;12.20;4.68;;;;;;;10.61;62.12;99965.47;4980406;28;103212;-75
2024/01/25 09:16:26;;;;;;;13.65;4.55;;;;;;;10.69;60.60;99966.56;4998265;28;102866;-74
2024/01/25 09:18:54;;;;;;;21.67;5.15;;;;;;;10.63;62.17;99978.56;4982616;28;103703;-75
2024/01/25 09:21:22;;;;;;;14.05;4.50;;;;;;;10.66;60.67;99988.06;5008012;28;104503;-75
2024/01/25 09:23:50;;;;;;;14.55;4.72;;;;;;;10.78;60.84;99987.81;4969581;28;103979;-75
2024/01/25 09:26:18;;;;;;;22.35;5.22;;;;;;;10.73;60.38;99984.72;4995170;28;102717;-75
2024/01/25 09:28:46;;;;;;;13.98;4.97;;;;;;;10.89;60.59;99988.66;4998010;28;104078;-74
2024/01/25 09:31:15;;;;;;;25.05;6.80;;;;;;;11.04;59.25;99991.72;4992391;28;103368;-75
2024/01/25 09:33:44;;;;;;;12.40;4.68;;;;;;;10.68;61.08;99997.53;4998348;28;103301;-75
2024/01/25 09:36:12;;;;;;;16.63;5.13;;;;;;;10.34;60.34;99994.38;5005366;28;102648;-75
2024/01/25 09:38:40;;;;;;;19.27;4.97;;;;;;;9.93;62.80;99999.63;4998437;28;102737;-74
2024/01/25 09:41:10;;;;;;;23.50;5.68;;;;;;;10.03;62.29;100000.50;5010477;28;104252;-74
2024/01/25 09:43:38;;;;;;;16.90;5.55;;;;;;;10.16;62.33;99996.81;4985754;28;104117;-75
2024/01/25 09:46:08;;;;;;;16.40;4.53;;;;;;;10.30;61.07;100001.75;5000573;28;102808;-75
2024/01/25 09:48:38;;;;;;;11.48;4.47;;;;;;;10.70;60.86;100003.56;4966645;28;104136;-74
2024/01/25 09:51:07;;;;;;;17.17;4.95;;;;;;;10.49;60.61;100003.63;4998882;28;103283;-74
2024/01/25 09:53:35;;;;;;;19.60;5.40;;;;;;;10.64;60.94;100017.34;4993246;28;103275;-74
2024/01/25 09:56:08;;;;;;;12.43;4.03;;;;;;;10.68;61.09;100017.91;4987958;28;103314;-74
2024/01/25 09:58:39;;;;;;;15.75;4.53;;;;;;;10.69;60.78;100009.81;4997433;28;104017;-75
2024/01/25 10:01:10;;;;;;;20.05;4.82;;;;;;;10.62;60.54;100013.97;4980124;28;104440;-73
2024/01/25 10:03:41;;;;;;;12.13;3.75;;;;;;;10.45;61.75;100013.69;4999889;28;103210;-74
2024/01/25 10:06:09;;;;;;;18.60;5.40;;;;;;;10.33;61.53;100016.53;4999342;28;102686;-74
2024/01/25 10:08:37;;;;;;;17.42;5.40;;;;;;;9.86;62.31;100022.31;4982165;28;102906;-74
2024/01/25 10:11:06;;;;;;;14.95;5.35;;;;;;;9.99;61.95;100022.09;5001015;27;104154;-74
2024/01/25 10:13:34;;;;;;;12.50;5.60;;;;;;;10.02;62.31;100017.38;4986068;28;103274;-74
2024/01/25 10:16:02;;;;;;;18.17;5.90;;;;;;;10.34;59.84;100019.03;4995394;28;102803;-74
2024/01/25 10:18:30;;;;;;;11.82;3.63;;;;;;;10.39;61.41;100008.91;5000618;28;103106;-74
2024/01/25 10:21:00;;;;;;;16.17;5.22;;;;;;;9.76;61.26;100001.91;4979004;28;103257;-74
2024/01/25 10:23:29;;;;;;;25.42;7.82;;;;;;;9.79;60.81;99999.00;4999341;28;103320;-74
2024/01/25 10:25:58;;;;;;;15.85;5.60;;;;;;;10.23;61.26;100000.59;5001897;28;102748;-74
2024/01/25 10:28:28;;;;;;;18.80;7.57;;;;;;;10.30;61.24;99999.09;5000072;28;102641;-74
2024/01/25 10:30:58;;;;;;;15.95;4.75;;;;;;;10.24;60.23;99994.31;4982252;28;104115;-74
2024/01/25 10:33:27;;;;;;;19.23;4.55;;;;;;;10.20;60.89;99992.94;5000472;28;103172;-74
2024/01/25 10:35:59;;;;;;;11.73;4.15;;;;;;;10.34;60.72;99989.91;4978841;28;102860;-74
2024/01/25 10:38:31;;;;;;;15.23;4.78;;;;;;;10.50;60.37;99994.72;4991413;28;103815;-74
2024/01/25 10:41:01;;;;;;;14.57;5.07;;;;;;;10.44;59.72;99996.09;4978415;28;103289;-74
2024/01/25 10:43:31;;;;;;;11.45;3.47;;;;;;;10.67;59.49;99990.56;5001586;28;103354;-74
2024/01/25 10:46:00;;;;;;;12.93;4.25;;;;;;;10.75;59.43;99982.75;4995192;28;102680;-74
2024/01/25 10:48:32;;;;;;;13.30;4.15;;;;;;;10.99;58.16;99973.59;4994718;28;102600;-74
2024/01/25 10:51:02;;;;;;;14.43;4.25;;;;;;;10.98;58.29;99977.22;5000743;28;103162;-73
2024/01/25 10:53:34;;;;;;;9.43;3.70;;;;;;;11.21;58.55;99963.66;5000538;28;103229;-74
2024/01/25 10:56:04;;;;;;;12.88;3.97;;;;;;;11.78;57.23;99961.03;4974438;28;102794;-74
2024/01/25 10:58:33;;;;;;;12.10;3.80;;;;;;;11.92;56.04;99965.03;5007847;28;103816;-74
2024/01/25 11:01:11;;;;;;;15.63;4.32;;;;;;;12.00;56.87;99967.84;4996673;28;104183;-75
2024/01/25 11:03:46;;;;;;;19.90;4.72;;;;;;;11.82;55.95;99964.25;4966585;28;104035;-75
2024/01/25 11:06:15;;;;;;;21.30;5.20;;;;;;;11.53;57.59;99959.81;4998688;28;102756;-74
2024/01/25 11:08:44;;;;;;;18.35;4.93;;;;;;;11.92;56.35;99962.34;5001785;28;104251;-74
2024/01/25 11:11:14;;;;;;;17.75;4.50;;;;;;;12.15;54.55;99951.41;4982663;28;104101;-75
2024/01/25 11:13:44;;;;;;;14.93;3.90;;;;;;;12.01;55.80;99942.94;4978012;28;103067;-74
2024/01/25 11:16:14;;;;;;;15.77;3.60;;;;;;;12.43;54.42;99952.22;5001576;28;102796;-75
2024/01/25 11:18:50;;;;;;;13.93;4.03;;;;;;;12.02;53.96;99947.25;4975024;28;103325;-74
2024/01/25 11:21:39;;;;;;;10.85;3.53;;;;;;;12.27;52.37;99936.94;4987635;28;104280;-74
2024/01/25 11:24:13;;;;;;;13.38;3.80;;;;;;;12.64;52.46;99933.31;4994354;28;103506;-75
2024/01/25 11:26:44;;;;;;;12.82;3.33;;;;;;;12.58;53.72;99913.53;4974389;28;102831;-74
2024/01/25 11:29:16;;;;;;;11.27;3.80;;;;;;;12.44;53.77;99920.22;4974646;28;104332;-74
2024/01/25 11:31:45;;;;;;;15.85;3.80;;;;;;;12.65;52.74;99918.22;4996754;28;103087;-75
2024/01/25 11:34:14;;;;;;;16.92;3.90;;;;;;;12.83;52.86;99916.41;4983882;28;103278;-74
2024/01/25 11:36:43;;;;;;;11.50;5.32;;;;;;;12.43;54.45;99907.91;5011472;28;102619;-75